Weather reports worldwide

Advertisment
Mont Aigoual, France (7560): temperature & dewpoint: 06.11.2019 16:00:00 - 12.11.2019 16:00:00 (CET)Mont Aigoual, France (7560): wind speed & gusts: 06.11.2019 16:00:00 - 12.11.2019 16:00:00 (CET)Mont Aigoual, France (7560): wind direction: 06.11.2019 16:00:00 - 12.11.2019 16:00:00 (CET)Mont Aigoual, France (7560): visibility: 06.11.2019 16:00:00 - 12.11.2019 16:00:00 (CET)Mont Aigoual, France (7560): precipitation: 06.11.2019 16:00:00 - 12.11.2019 16:00:00 (CET)
Date & Time tt [°C] td [°C] ff [km/h] ff [kn] fx [km/h] fx [kn] dd vv [km] rr [mm]
12.11.2019 16:00:00 -1,4 -1,5 59 32 113 61 NNW 0,1 0,0
12.11.2019 15:00:00 -1,2 -1,3 74 40 115 62 NNW 0,2 0,0
12.11.2019 14:00:00 -1,0 -1,1 68 37 105 57 NNW 0,2 0,0
12.11.2019 13:00:00 -1,1 -1,2 51 28 97 53 N 0,1 0,0
12.11.2019 12:00:00 -1,2 -1,5 59 32 102 55 NNW 0,1 0,0
12.11.2019 11:00:00 -0,6 -0,6 60 33 104 56 NNW 0,1 0,0
12.11.2019 10:00:00 -2,5 -2,8 80 43 116 62 NNW 0,2 0,0
12.11.2019 09:00:00 -3,4 -3,8 91 49 142 77 NNW 0,2 0,0
12.11.2019 08:00:00 -3,8 -4,2 88 48 127 68 NNW 0,2 0,0
12.11.2019 07:00:00 -4,2 -4,7 90 49 133 72 NNW 4,9 0,0
12.11.2019 06:00:00 -4,6 -5,1 87 47 121 66 NNW 2,5 0,0
12.11.2019 05:00:00 -4,3 -4,8 67 36 116 63 NNW 0,2 0,0
12.11.2019 04:00:00 -4,1 -4,6 77 41 114 62 NNW 0,4 0,0
12.11.2019 03:00:00 -3,8 -4,2 59 32 109 59 N 0,5 0,0
12.11.2019 02:00:00 -3,7 -4,1 61 33 104 56 N 0,6 0,0
12.11.2019 01:00:00 -3,1 -3,5 58 31 103 56 N 0,2 0,0
12.11.2019 00:00:00 -2,4 -2,7 58 31 116 63 N 0,1 0,2
11.11.2019 23:00:00 -0,7 -0,8 60 33 91 49 NNW 0,1 0,0
11.11.2019 22:00:00 -0,2 -0,3 56 30 84 46 NW 0,1 0,2
11.11.2019 21:00:00 -0,5 -0,6 52 28 79 42 NNW 0,1 0,0
11.11.2019 20:00:00 -0,8 -0,9 61 33 80 43 NW 0,1 0,0
11.11.2019 19:00:00 -0,8 -0,9 54 29 89 48 NNW 0,1 0,0
11.11.2019 18:00:00 -1,2 -1,5 55 30 80 43 NNW 0,1 0,0
11.11.2019 17:00:00 -1,0 -1,3 50 27 81 44 NNW 1,2 0,0
11.11.2019 16:00:00 -1,1 -1,5 58 32 82 44 NW 20 0,0
11.11.2019 15:00:00 -1,1 -1,5 47 25 68 37 NW 0,3 0,0
11.11.2019 14:00:00 -1,2 -1,9 39 21 57 31 WNW 20 0,0
11.11.2019 13:00:00 -1,7 -2,5 39 21 49 26 WNW 10 0,0
11.11.2019 12:00:00 -2,3 -2,9 37 20 48 26 WNW 9 0,0
11.11.2019 11:00:00 -3,0 -3,7 40 22 62 34 WNW 9 0,0
11.11.2019 10:00:00 -3,5 -4,3 41 22 50 27 WNW 9 0,0
11.11.2019 09:00:00 -3,7 -5,1 31 17 50 27 WNW 9 0,0
11.11.2019 08:00:00 -3,8 -4,6 47 25 60 32 WNW 8 0,0
11.11.2019 07:00:00 -3,9 -4,7 48 26 68 37 NW 8 0,0
11.11.2019 06:00:00 -3,7 -4,4 51 27 69 37 NW 0,3 0,0
11.11.2019 05:00:00 -3,5 -4,3 38 20 57 31 WNW 8 0,0
11.11.2019 04:00:00 -3,5 -4,0 29 16 46 25 WNW 0,7 0,0
11.11.2019 03:00:00 -3,7 -4,2 30 16 48 26 WNW 6 0,0
11.11.2019 02:00:00 -4,0 -4,4 45 24 73 40 NW 0,1 0,0
11.11.2019 01:00:00 -4,0 -4,7 42 23 57 31 NW 0,1 0,0
11.11.2019 00:00:00 -3,8 -5,1 26 14 41 22 N 11 0,0
10.11.2019 23:00:00 -4,0 -4,8 33 18 58 32 N 10 0,0
10.11.2019 22:00:00 -3,7 -4,4 41 22 76 41 N 10 0,0
10.11.2019 21:00:00 -3,5 -4,2 57 31 84 46 N 10 0,0
10.11.2019 20:00:00 -3,4 -3,9 59 32 76 41 N 10 0,0
10.11.2019 19:00:00 -3,3 -4,0 50 27 86 46 N 10 0,0
10.11.2019 18:00:00 -3,1 -3,8 63 34 93 50 N 6 0,0
10.11.2019 17:00:00 -2,7 -3,2 50 27 73 40 N 10 0,0
10.11.2019 16:00:00 -1,9 -2,3 49 26 64 35 N 10 0,0
10.11.2019 15:00:00 -1,6 -1,9 44 24 69 37 N 10 0,0
10.11.2019 14:00:00 -2,2 -2,5 50 27 75 40 N 0,3 0,0
10.11.2019 13:00:00 -2,2 -2,5 50 27 77 41 N 1,6 0,0
10.11.2019 12:00:00 -2,1 -2,4 35 19 83 45 N 0,4 0,0
10.11.2019 11:00:00 -2,5 -2,8 63 34 88 48 NNW 0,2 0,0
10.11.2019 10:00:00 -2,8 -3,1 62 34 140 76 NW 0,1 0,0
10.11.2019 09:00:00 -2,8 -3,2 56 30 83 45 NNW 0,2 0,0
10.11.2019 08:00:00 -2,7 -3,0 55 30 91 49 NNW 0,1 0,0
10.11.2019 07:00:00 -2,7 -3,0 58 31 92 50 NNW 0,1 0,0
10.11.2019 06:00:00 -2,6 -2,9 57 31 107 58 NNW 0,1 0,0
10.11.2019 05:00:00 -2,6 -2,9 43 23 99 54 NW 0,1 0,0
10.11.2019 04:00:00 -2,1 -2,4 51 27 85 46 NNW 0,1 0,0
10.11.2019 03:00:00 -1,7 -1,8 54 29 90 49 NW 0,1 0,0
10.11.2019 02:00:00 -1,0 -1,1 49 27 74 40 WNW 0,1 0,0
10.11.2019 01:00:00 -0,4 -0,5 35 19 59 32 W 0,1 0,4
10.11.2019 00:00:00 -0,3 -0,4 29 16 58 32 WSW 0,2 0,0
09.11.2019 23:00:00 -0,7 -0,8 29 16 58 32 W 1,8 0,6
09.11.2019 22:00:00 -0,8 -1,1 36 19 59 32 W 0,2 0,0
09.11.2019 21:00:00 -3,0 -3,8 31 17 49 26 W 20 0,0
09.11.2019 20:00:00 -3,8 -4,9 27 15 36 19 W 20 0,0
09.11.2019 19:00:00 -3,3 -4,0 28 15 39 21 NNW 20 0,0
09.11.2019 18:00:00 -2,9 -3,4 31 17 42 23 NNW 20 0,0
09.11.2019 17:00:00 -2,0 -2,3 31 17 59 32 NNW 0,2 0,0
09.11.2019 16:00:00 -1,8 -2,1 37 20 54 29 NNW 0,5 0,0
09.11.2019 15:00:00 -1,1 -1,2 33 18 54 29 NNW 1,3 0,0
09.11.2019 14:00:00 -1,1 -1,2 33 18 54 29 NNW 18 0,2
09.11.2019 13:00:00 -1,5 -1,6 27 14 69 37 NNW 0,3 0,0
09.11.2019 12:00:00 -1,7 -1,8 39 21 89 48 NNW 0,2 0,0
09.11.2019 11:00:00 -2,1 -2,4 62 33 96 52 NNW 0,1 0,0
09.11.2019 10:00:00 -2,1 -2,4 47 25 96 52 N 0,1 0,0
09.11.2019 09:00:00 -2,3 -2,6 59 32 97 52 N 0,2 0,0
09.11.2019 08:00:00 -2,4 -2,7 59 32 99 54 N 0,1 0,0
09.11.2019 07:00:00 -2,4 -2,7 63 34 110 59 N 0,1 0,0
09.11.2019 06:00:00 -2,3 -2,6 64 34 96 52 NNW 0,1 0,0
09.11.2019 05:00:00 -2,3 -2,6 68 37 91 49 NNW 0,1 0,0
09.11.2019 04:00:00 -2,3 -2,6 62 33 87 47 NNW 0,1 0,0
09.11.2019 03:00:00 -2,2 -2,5 63 34 90 49 NNW 0,1 0,0
09.11.2019 02:00:00 -2,2 -2,5 63 34 84 45 N 0,2 0,0
09.11.2019 01:00:00 -2,2 -2,5 51 28 75 40 NNW 0,1 0,0
09.11.2019 00:00:00 -2,2 -2,5 54 29 81 44 NNW 0,1 0,0
08.11.2019 23:00:00 -2,1 -2,4 59 32 90 49 NNW 0,1 0,0
08.11.2019 22:00:00 -2,0 -2,3 51 28 95 52 NNW 0,1 0,0
08.11.2019 21:00:00 -2,0 -2,3 51 28 96 52 NNW 0,1 0,0
08.11.2019 20:00:00 -1,9 -2,2 53 29 98 53 NNW 0,1 0,2
08.11.2019 19:00:00 -1,6 -1,7 40 21 60 33 NW 0,2 0,4
08.11.2019 18:00:00 -1,3 -1,4 31 17 47 26 WNW 0,4 0,2
08.11.2019 17:00:00 -0,9 -1,0 15 8 30 16 WNW 0,4 0,4
08.11.2019 16:00:00 -0,9 -1,0 18 10 45 25 W 0,1 0,0
08.11.2019 15:00:00 -0,8 -0,9 20 11 47 26 WNW 0,2 0,0
08.11.2019 14:00:00 -1,0 -1,1 32 17 53 28 WNW 0,1 0,0
08.11.2019 13:00:00 -1,1 -1,2 34 18 50 27 WNW 0,1 0,2
08.11.2019 12:00:00 -1,2 -1,3 35 19 67 36 WNW 0,1 0,2
08.11.2019 11:00:00 -1,8 -1,9 38 21 73 39 WNW 0,1 0,0
08.11.2019 10:00:00 -2,4 -2,7 58 31 87 47 WNW 0,1 0,0
08.11.2019 09:00:00 -2,5 -2,8 52 28 73 40 NW 0,2 0,0
08.11.2019 08:00:00 -2,8 -3,1 51 28 81 44 WNW 0,1 0,0
08.11.2019 07:00:00 -2,9 -3,3 58 32 115 62 WNW 0,2 0,0
08.11.2019 06:00:00 -2,9 -3,3 54 29 - - NW 0,1 -
08.11.2019 05:00:00 - - - - - - - - -
08.11.2019 04:00:00 - - - - - - - - -
08.11.2019 03:00:00 - - - - - - - - -
08.11.2019 02:00:00 -2,4 -2,7 53 29 77 42 WNW 0,1 0,0
08.11.2019 01:00:00 -2,5 -2,8 46 25 79 42 NW 0,1 0,0
08.11.2019 00:00:00 -2,2 -2,5 57 31 81 44 WNW 0,1 0,0
07.11.2019 23:00:00 -2,3 -2,6 47 25 66 36 NW 0,1 0,0
07.11.2019 22:00:00 -1,9 -2,0 44 24 59 32 NW 0,1 0,0
07.11.2019 21:00:00 -1,8 -1,9 41 22 98 53 WNW 0,1 0,0
07.11.2019 20:00:00 -1,7 -1,8 47 26 63 34 WNW 0,1 0,0
07.11.2019 19:00:00 -1,8 -1,9 48 26 73 39 NW 0,2 0,0
07.11.2019 18:00:00 -1,8 -1,9 39 21 56 30 NW 0,5 0,2
07.11.2019 17:00:00 -1,4 -1,4 31 17 46 25 NW 0,4 0,0
07.11.2019 16:00:00 -0,7 -0,7 29 16 47 26 NW 0,2 0,0
07.11.2019 15:00:00 -0,8 -0,8 31 17 44 24 NW 0,8 0,4
07.11.2019 14:00:00 -0,1 -0,1 22 12 40 22 NNW 0,2 0,2
07.11.2019 13:00:00 0,0 0,0 27 15 44 24 NW 0,2 0,0
07.11.2019 12:00:00 0,9 0,9 23 13 47 26 NW 0,1 0,0
07.11.2019 11:00:00 0,9 0,9 29 15 58 31 WNW 0,1 0,2
07.11.2019 10:00:00 1,2 1,2 39 21 55 30 WNW 0,2 0,4
07.11.2019 09:00:00 1,3 1,3 20 11 57 31 W 0,1 0,6
07.11.2019 08:00:00 1,4 1,4 26 14 78 42 SW 0,2 0,8
07.11.2019 07:00:00 1,3 1,3 33 18 80 43 SW 0,1 0,4
07.11.2019 06:00:00 1,3 1,3 50 27 85 46 SSW 0,1 1,0
07.11.2019 05:00:00 1,3 1,3 46 25 73 40 SSW 0,1 0,4
07.11.2019 04:00:00 1,1 1,1 44 24 74 40 SSW 0,1 0,0
07.11.2019 03:00:00 0,9 0,9 42 23 69 38 SW 0,3 0,0
07.11.2019 02:00:00 0,5 0,5 25 13 41 22 SSW 0,1 0,0
07.11.2019 01:00:00 0,2 0,2 23 12 48 26 W 3,2 0,0
07.11.2019 00:00:00 -0,2 -0,2 27 15 48 26 W 11 0,0
06.11.2019 23:00:00 0,0 0,0 44 24 74 40 WNW 0,9 0,0
06.11.2019 22:00:00 0,4 0,4 61 33 78 42 NW 0,2 0,0
06.11.2019 21:00:00 0,8 0,8 56 30 77 42 NW 0,1 0,0
06.11.2019 20:00:00 0,8 0,8 41 22 61 33 NW 0,1 0,0
06.11.2019 19:00:00 0,9 0,9 40 22 59 32 NW 0,1 0,0
06.11.2019 18:00:00 0,7 0,7 40 22 79 43 NNW 0,1 0,0
06.11.2019 17:00:00 0,6 0,6 50 27 77 42 NNW 0,1 0,2
06.11.2019 16:00:00 0,7 0,7 42 23 81 44 NNW 0,1 0,2

tt = temperature
td = dewpoint
ff = wind speed
fx = gusts
dd = wind direction
vv = visibility
rr = precipitation

Next stations